createdAt,value
2023-02-13T00:01:50.273Z,101497.09
2023-02-13T00:04:17.082Z,101499.66
2023-02-13T00:06:44.211Z,101493.88
2023-02-13T00:09:11.309Z,101500.69
2023-02-13T00:11:39.314Z,101502.66
2023-02-13T00:14:06.792Z,101494.66
2023-02-13T00:16:35.361Z,101493.06
2023-02-13T00:19:02.914Z,101499.09
2023-02-13T00:21:29.833Z,101498.25
2023-02-13T00:23:56.866Z,101499.66
2023-02-13T00:26:24.065Z,101499.41
2023-02-13T00:28:50.852Z,101499.16
2023-02-13T00:31:21.613Z,101498.38
2023-02-13T00:33:49.701Z,101500.56
2023-02-13T00:36:20.443Z,101497.75
2023-02-13T00:38:48.646Z,101507.94
2023-02-13T00:41:16.844Z,101512.63
2023-02-13T00:43:46.794Z,101511.50
2023-02-13T00:46:14.877Z,101510.06
2023-02-13T00:48:42.865Z,101506.91
2023-02-13T00:51:10.429Z,101515.50
2023-02-13T00:56:30.192Z,101513.06
2023-02-13T00:58:57.168Z,101511.84
2023-02-13T01:01:26.737Z,101516.34
2023-02-13T01:03:53.687Z,101520.09
2023-02-13T01:06:22.892Z,101519.41
2023-02-13T01:08:49.806Z,101521.41
2023-02-13T01:11:16.983Z,101515.50
2023-02-13T01:13:44.374Z,101515.78
2023-02-13T01:16:12.839Z,101515.13
2023-02-13T01:18:40.524Z,101506.59
2023-02-13T01:21:09.619Z,101504.00
2023-02-13T01:23:38.475Z,101501.59
2023-02-13T01:26:08.677Z,101500.47
2023-02-13T01:28:35.754Z,101511.31
2023-02-13T01:31:04.901Z,101515.88
2023-02-13T01:33:32.041Z,101515.41
2023-02-13T01:35:58.979Z,101513.41
2023-02-13T01:38:25.971Z,101508.78
2023-02-13T01:40:55.492Z,101504.19
2023-02-13T01:43:27.340Z,101505.13
2023-02-13T01:45:58.756Z,101507.47
2023-02-13T01:48:27.785Z,101501.44
2023-02-13T01:51:07.718Z,101499.44
2023-02-13T01:53:52.973Z,101505.44
2023-02-13T01:56:26.746Z,101498.25
2023-02-13T01:58:58.914Z,101497.97
2023-02-13T02:01:28.166Z,101504.00
2023-02-13T02:04:00.745Z,101488.44
2023-02-13T02:06:44.583Z,101488.84
2023-02-13T02:09:19.996Z,101498.19
2023-02-13T02:11:56.734Z,101493.13
2023-02-13T02:14:25.239Z,101491.19
2023-02-13T02:16:57.257Z,101500.97
2023-02-13T02:19:49.436Z,101489.53
2023-02-13T02:22:35.768Z,101492.63
2023-02-13T02:25:02.600Z,101487.25
2023-02-13T02:28:01.022Z,101480.50
2023-02-13T02:30:42.201Z,101479.31
2023-02-13T02:33:33.556Z,101481.66
2023-02-13T02:36:03.800Z,101475.66
2023-02-13T02:39:16.940Z,101476.47
2023-02-13T02:41:54.014Z,101475.50
2023-02-13T02:44:48.698Z,101468.56
2023-02-13T02:47:15.664Z,101468.84
2023-02-13T02:49:49.460Z,101474.56
2023-02-13T02:52:32.014Z,101463.66
2023-02-13T02:55:21.660Z,101472.72
2023-02-13T02:58:14.031Z,101471.94
2023-02-13T03:00:43.097Z,101475.31
2023-02-13T03:03:23.576Z,101464.53
2023-02-13T03:05:52.276Z,101457.75
2023-02-13T03:08:19.485Z,101463.53
2023-02-13T03:11:11.956Z,101459.53
2023-02-13T03:13:50.021Z,101462.75
2023-02-13T03:16:21.160Z,101456.97
2023-02-13T03:18:56.276Z,101461.97
2023-02-13T03:21:48.694Z,101455.38
2023-02-13T03:24:46.338Z,101456.97
2023-02-13T03:27:44.847Z,101464.56
2023-02-13T03:30:18.269Z,101459.19
2023-02-13T03:32:54.661Z,101449.16
2023-02-13T03:35:32.577Z,101457.97
2023-02-13T03:38:12.500Z,101463.78
2023-02-13T03:41:02.368Z,101454.59
2023-02-13T03:43:38.777Z,101453.41
2023-02-13T03:46:07.496Z,101458.19
2023-02-13T03:48:38.540Z,101458.41
2023-02-13T03:51:45.698Z,101461.00
2023-02-13T03:54:33.053Z,101462.81
2023-02-13T03:57:00.177Z,101456.63
2023-02-13T03:59:32.843Z,101453.41
2023-02-13T04:02:05.817Z,101458.19
2023-02-13T04:04:43.853Z,101466.59
2023-02-13T04:07:15.981Z,101464.97
2023-02-13T04:13:16.228Z,101454.78
2023-02-13T04:15:51.700Z,101455.81
2023-02-13T04:18:28.751Z,101458.44
2023-02-13T04:21:21.001Z,101439.91
2023-02-13T04:23:49.888Z,101444.72
2023-02-13T04:26:21.382Z,101437.09
2023-02-13T04:28:48.640Z,101447.13
2023-02-13T04:31:20.867Z,101443.13
2023-02-13T04:33:51.195Z,101437.94
2023-02-13T04:36:18.080Z,101440.16
2023-02-13T04:38:45.811Z,101437.72
2023-02-13T04:41:13.293Z,101439.13
2023-02-13T04:43:40.278Z,101440.34
2023-02-13T04:46:07.896Z,101438.13
2023-02-13T04:48:34.740Z,101443.09
2023-02-13T04:51:02.282Z,101433.91
2023-02-13T04:53:29.856Z,101440.31
2023-02-13T04:56:00.211Z,101441.50
2023-02-13T04:58:28.274Z,101439.13
2023-02-13T05:00:55.654Z,101443.09
2023-02-13T05:03:23.343Z,101433.50
2023-02-13T05:05:53.330Z,101433.91
2023-02-13T05:08:20.466Z,101437.72
2023-02-13T05:10:48.216Z,101442.16
2023-02-13T05:13:17.718Z,101435.53
2023-02-13T05:15:45.409Z,101437.94
2023-02-13T05:18:12.280Z,101440.75
2023-02-13T05:20:39.598Z,101445.56
2023-02-13T05:23:13.193Z,101445.13
2023-02-13T05:26:04.985Z,101443.94
2023-02-13T05:28:32.149Z,101443.97
2023-02-13T05:30:59.333Z,101439.53
2023-02-13T05:33:29.843Z,101436.94
2023-02-13T05:36:21.578Z,101443.94
2023-02-13T05:41:43.880Z,101447.75
2023-02-13T05:44:11.461Z,101451.19
2023-02-13T05:46:39.990Z,101451.97
2023-02-13T05:49:08.926Z,101462.34
2023-02-13T05:51:36.186Z,101461.56
2023-02-13T05:54:03.693Z,101450.34
2023-02-13T05:56:31.319Z,101449.13
2023-02-13T05:58:58.935Z,101453.94
2023-02-13T06:01:27.248Z,101449.13
2023-02-13T06:03:54.095Z,101454.53
2023-02-13T06:06:21.145Z,101458.53
2023-02-13T06:08:48.007Z,101461.50
2023-02-13T06:11:14.798Z,101465.13
2023-02-13T06:14:07.836Z,101473.13
2023-02-13T06:16:34.847Z,101463.50
2023-02-13T06:19:01.709Z,101464.13
2023-02-13T06:21:29.387Z,101474.97
2023-02-13T06:23:56.797Z,101469.53
2023-02-13T06:26:23.637Z,101466.16
2023-02-13T06:28:50.499Z,101472.97
2023-02-13T06:31:19.175Z,101474.59
2023-02-13T06:33:46.039Z,101479.78
2023-02-13T06:36:13.861Z,101476.97
2023-02-13T06:38:41.713Z,101479.41
2023-02-13T06:41:09.040Z,101472.97
2023-02-13T06:43:37.780Z,101479.38
2023-02-13T06:46:07.457Z,101480.41
2023-02-13T06:48:34.741Z,101483.44
2023-02-13T06:51:02.873Z,101482.81
2023-02-13T06:53:30.322Z,101485.44
2023-02-13T06:55:57.746Z,101484.63
2023-02-13T06:58:26.343Z,101483.22
2023-02-13T07:00:53.926Z,101490.25
2023-02-13T07:03:21.365Z,101492.66
2023-02-13T07:05:48.164Z,101497.88
2023-02-13T07:08:15.222Z,101494.06
2023-02-13T07:10:42.743Z,101495.28
2023-02-13T07:13:10.092Z,101500.88
2023-02-13T07:15:37.671Z,101498.47
2023-02-13T07:18:05.136Z,101506.50
2023-02-13T07:20:32.918Z,101503.69
2023-02-13T07:23:01.594Z,101509.91
2023-02-13T07:25:29.764Z,101514.91
2023-02-13T07:28:02.041Z,101512.28
2023-02-13T07:30:30.522Z,101505.72
2023-02-13T07:33:02.130Z,101512.91
2023-02-13T07:35:29.786Z,101513.91
2023-02-13T07:37:56.982Z,101512.69
2023-02-13T07:40:24.218Z,101508.91
2023-02-13T07:42:53.874Z,101515.13
2023-02-13T07:45:20.639Z,101512.13
2023-02-13T07:47:48.199Z,101518.13
2023-02-13T07:50:15.206Z,101512.91
2023-02-13T07:52:42.160Z,101515.72
2023-02-13T07:55:09.056Z,101504.06
2023-02-13T07:57:36.981Z,101511.28
2023-02-13T08:00:04.086Z,101516.91
2023-02-13T08:02:40.747Z,101513.88
2023-02-13T08:05:11.271Z,101518.69
2023-02-13T08:07:38.107Z,101512.28
2023-02-13T08:10:10.825Z,101513.09
2023-02-13T08:12:37.844Z,101509.47
2023-02-13T08:15:05.110Z,101517.91
2023-02-13T08:17:32.119Z,101517.91
2023-02-13T08:19:58.840Z,101514.69
2023-02-13T08:22:26.856Z,101518.91
2023-02-13T08:24:53.682Z,101520.31
2023-02-13T08:30:12.535Z,101513.31
2023-02-13T08:32:53.015Z,101519.09
2023-02-13T08:38:37.904Z,101518.91
2023-02-13T08:41:04.848Z,101524.13
2023-02-13T08:43:31.683Z,101526.91
2023-02-13T08:46:00.390Z,101514.28
2023-02-13T08:48:28.231Z,101520.69
2023-02-13T08:50:55.094Z,101518.69
2023-02-13T08:53:22.804Z,101517.66
2023-02-13T08:55:54.641Z,101515.25
2023-02-13T08:58:22.704Z,101524.88
2023-02-13T09:00:50.241Z,101520.44
2023-02-13T09:03:17.644Z,101528.09
2023-02-13T09:05:44.484Z,101527.06
2023-02-13T09:08:11.317Z,101523.66
2023-02-13T09:10:38.575Z,101520.50
2023-02-13T09:13:07.520Z,101528.91
2023-02-13T09:15:34.348Z,101523.06
2023-02-13T09:18:01.257Z,101522.06
2023-02-13T09:20:28.061Z,101526.06
2023-02-13T09:22:55.601Z,101528.06
2023-02-13T09:25:22.346Z,101525.88
2023-02-13T09:27:49.823Z,101523.03
2023-02-13T09:30:17.353Z,101527.03
2023-02-13T09:32:46.791Z,101530.22
2023-02-13T09:35:13.503Z,101525.81
2023-02-13T09:37:41.202Z,101535.03
2023-02-13T09:40:21.587Z,101542.47
2023-02-13T09:42:49.970Z,101540.47
2023-02-13T09:45:20.701Z,101543.66
2023-02-13T09:47:48.550Z,101542.44
2023-02-13T09:50:23.062Z,101544.25
2023-02-13T09:52:53.681Z,101551.47
2023-02-13T09:55:54.474Z,101548.25
2023-02-13T09:58:49.942Z,101551.47
2023-02-13T10:01:22.680Z,101541.63
2023-02-13T10:04:20.040Z,101551.22
2023-02-13T10:06:56.514Z,101551.22
2023-02-13T10:09:40.677Z,101550.84
2023-02-13T10:12:27.453Z,101545.06
2023-02-13T10:15:13.763Z,101551.28
2023-02-13T10:17:47.962Z,101546.44
2023-02-13T10:20:32.361Z,101556.53
2023-02-13T10:23:39.705Z,101562.94
2023-02-13T10:26:33.325Z,101559.72
2023-02-13T10:29:12.520Z,101563.34
2023-02-13T10:31:43.375Z,101551.88
2023-02-13T10:34:17.089Z,101546.66
2023-02-13T10:36:46.471Z,101545.69
2023-02-13T10:39:27.708Z,101540.25
2023-02-13T10:42:06.142Z,101532.19
2023-02-13T10:44:42.408Z,101523.75
2023-02-13T10:47:09.342Z,101517.13
2023-02-13T10:49:47.848Z,101517.69
2023-02-13T10:52:23.531Z,101507.44
2023-02-13T10:55:22.847Z,101509.00
2023-02-13T10:58:08.500Z,101507.97
2023-02-13T11:00:43.184Z,101506.97
2023-02-13T11:03:25.342Z,101494.88
2023-02-13T11:05:58.090Z,101499.13
2023-02-13T11:08:30.645Z,101500.94
2023-02-13T11:10:59.989Z,101498.94
2023-02-13T11:13:29.316Z,101506.38
2023-02-13T11:15:57.820Z,101499.56
2023-02-13T11:18:27.918Z,101502.75
2023-02-13T11:21:31.428Z,101489.28
2023-02-13T11:24:26.160Z,101491.03
2023-02-13T11:26:58.415Z,101490.03
2023-02-13T11:29:34.056Z,101483.38
2023-02-13T11:32:17.704Z,101487.38
2023-02-13T11:34:45.659Z,101480.47
2023-02-13T11:37:12.372Z,101487.47
2023-02-13T11:39:40.731Z,101487.63
2023-02-13T11:42:24.369Z,101486.25
2023-02-13T11:45:24.951Z,101492.41
2023-02-13T11:47:53.888Z,101484.75
2023-02-13T11:50:33.761Z,101486.16
2023-02-13T11:53:08.095Z,101487.88
2023-02-13T11:55:40.677Z,101484.28
2023-02-13T11:58:10.571Z,101485.22
2023-02-13T12:00:40.632Z,101483.41
2023-02-13T12:06:24.802Z,101481.97
2023-02-13T12:08:51.731Z,101482.19
2023-02-13T12:11:51.867Z,101492.63
2023-02-13T12:14:22.670Z,101480.56
2023-02-13T12:17:14.323Z,101478.34
2023-02-13T12:19:48.514Z,101478.16
2023-02-13T12:22:39.805Z,101462.91
2023-02-13T12:25:30.482Z,101465.63
2023-02-13T12:28:08.810Z,101451.72
2023-02-13T12:30:49.531Z,101443.88
2023-02-13T12:33:47.596Z,101449.56
2023-02-13T12:36:22.011Z,101440.09
2023-02-13T12:39:16.548Z,101445.09
2023-02-13T12:42:15.740Z,101432.28
2023-02-13T12:44:44.768Z,101437.72
2023-02-13T12:47:26.505Z,101433.66
2023-02-13T12:50:14.832Z,101439.03
2023-02-13T12:53:03.451Z,101431.56
2023-02-13T12:55:51.751Z,101429.91
2023-02-13T12:58:30.208Z,101420.47
2023-02-13T13:01:33.857Z,101425.41
2023-02-13T13:04:03.792Z,101430.19
2023-02-13T13:06:42.774Z,101430.19
2023-02-13T13:09:17.956Z,101423.75
2023-02-13T13:15:38.552Z,101424.53
2023-02-13T13:18:28.279Z,101420.16
2023-02-13T13:21:24.886Z,101417.25
2023-02-13T13:24:05.706Z,101415.72
2023-02-13T13:29:40.786Z,101424.94
2023-02-13T13:32:12.161Z,101430.09
2023-02-13T13:34:40.272Z,101421.56
2023-02-13T13:37:45.728Z,101420.78
2023-02-13T13:40:40.870Z,101423.75
2023-02-13T13:43:52.879Z,101413.06
2023-02-13T13:46:34.996Z,101420.25
2023-02-13T13:49:10.720Z,101422.63
2023-02-13T13:51:38.190Z,101419.81
2023-02-13T13:57:05.752Z,101418.44
2023-02-13T13:59:38.496Z,101417.75
2023-02-13T14:02:22.785Z,101415.38
2023-02-13T14:05:39.028Z,101416.16
2023-02-13T14:08:42.222Z,101410.94
2023-02-13T14:11:32.068Z,101419.81
2023-02-13T14:14:00.134Z,101403.97
2023-02-13T14:16:44.715Z,101410.84
2023-02-13T14:19:43.781Z,101402.56
2023-02-13T14:22:38.597Z,101409.00
2023-02-13T14:25:21.341Z,101405.78
2023-02-13T14:28:03.512Z,101406.38
2023-02-13T14:30:41.997Z,101411.81
2023-02-13T14:33:25.732Z,101416.75
2023-02-13T14:36:09.212Z,101415.25
2023-02-13T14:39:38.906Z,101406.69
2023-02-13T14:42:26.903Z,101407.69
2023-02-13T14:44:59.981Z,101409.75
2023-02-13T14:47:51.834Z,101408.47
2023-02-13T14:50:40.776Z,101408.66
2023-02-13T14:53:29.776Z,101408.88
2023-02-13T14:56:11.888Z,101411.72
2023-02-13T14:58:52.015Z,101404.31
2023-02-13T15:01:30.792Z,101404.53
2023-02-13T15:04:24.673Z,101403.63
2023-02-13T15:06:54.517Z,101394.06
2023-02-13T15:09:41.884Z,101398.28
2023-02-13T15:12:36.132Z,101399.75
2023-02-13T15:15:23.026Z,101391.47
2023-02-13T15:17:50.266Z,101390.66
2023-02-13T15:20:23.099Z,101385.66
2023-02-13T15:22:50.090Z,101377.66
2023-02-13T15:25:38.264Z,101381.97
2023-02-13T15:28:31.052Z,101391.81
2023-02-13T15:31:01.277Z,101383.13
2023-02-13T15:33:44.412Z,101384.72
2023-02-13T15:36:25.373Z,101387.13
2023-02-13T15:39:08.037Z,101388.72
2023-02-13T15:42:04.802Z,101389.38
2023-02-13T15:44:35.379Z,101393.59
2023-02-13T15:47:07.310Z,101391.09
2023-02-13T15:49:43.321Z,101388.91
2023-02-13T15:52:33.754Z,101397.50
2023-02-13T15:55:01.376Z,101397.16
2023-02-13T15:57:29.520Z,101390.53
2023-02-13T16:00:00.916Z,101390.91
2023-02-13T16:02:47.916Z,101396.31
2023-02-13T16:05:19.962Z,101392.91
2023-02-13T16:08:00.281Z,101393.50
2023-02-13T16:10:36.424Z,101396.75
2023-02-13T16:13:07.585Z,101400.03
2023-02-13T16:15:38.046Z,101407.38
2023-02-13T16:18:19.116Z,101405.75
2023-02-13T16:20:59.083Z,101412.44
2023-02-13T16:23:27.042Z,101413.03
2023-02-13T16:26:03.958Z,101406.13
2023-02-13T16:28:32.306Z,101405.69
2023-02-13T16:31:03.307Z,101405.19
2023-02-13T16:33:34.334Z,101403.97
2023-02-13T16:36:29.893Z,101405.13
2023-02-13T16:38:56.944Z,101408.97
2023-02-13T16:41:34.076Z,101409.78
2023-02-13T16:44:03.592Z,101408.38
2023-02-13T16:46:32.967Z,101402.16
2023-02-13T16:49:14.601Z,101404.78
2023-02-13T16:51:44.244Z,101403.75
2023-02-13T16:54:12.459Z,101409.78
2023-02-13T16:56:48.901Z,101403.97
2023-02-13T16:59:28.520Z,101402.00
2023-02-13T17:02:13.230Z,101395.19
2023-02-13T17:04:43.096Z,101397.78
2023-02-13T17:07:19.749Z,101395.59
2023-02-13T17:09:53.782Z,101399.25
2023-02-13T17:12:23.521Z,101396.25
2023-02-13T17:14:51.143Z,101393.28
2023-02-13T17:17:23.409Z,101398.94
2023-02-13T17:19:52.352Z,101405.88
2023-02-13T17:22:46.124Z,101399.03
2023-02-13T17:25:20.185Z,101394.47
2023-02-13T17:27:51.252Z,101389.72
2023-02-13T17:30:24.767Z,101392.06
2023-02-13T17:32:59.752Z,101390.41
2023-02-13T17:35:53.558Z,101386.38
2023-02-13T17:38:21.515Z,101393.81
2023-02-13T17:40:50.021Z,101388.22
2023-02-13T17:43:21.702Z,101386.38
2023-02-13T17:45:50.138Z,101385.22
2023-02-13T17:48:18.367Z,101385.66
2023-02-13T17:50:51.879Z,101387.63
2023-02-13T17:53:29.202Z,101392.06
2023-02-13T17:55:59.593Z,101388.22
2023-02-13T17:58:27.071Z,101388.44
2023-02-13T18:00:54.519Z,101385.22
2023-02-13T18:03:24.256Z,101381.38
2023-02-13T18:05:53.685Z,101387.03
2023-02-13T18:08:21.740Z,101379.44
2023-02-13T18:10:49.702Z,101378.63
2023-02-13T18:13:20.280Z,101374.03
2023-02-13T18:15:48.134Z,101363.44
2023-02-13T18:18:17.207Z,101364.16
2023-02-13T18:20:45.404Z,101368.50
2023-02-13T18:23:14.716Z,101362.97
2023-02-13T18:25:42.766Z,101357.75
2023-02-13T18:28:13.331Z,101358.38
2023-02-13T18:33:35.364Z,101342.88
2023-02-13T18:36:03.306Z,101334.81
2023-02-13T18:38:33.869Z,101338.03
2023-02-13T18:41:03.772Z,101340.03
2023-02-13T18:43:30.927Z,101340.84
2023-02-13T18:45:59.297Z,101342.47
2023-02-13T18:48:28.859Z,101345.44
2023-02-13T18:51:00.150Z,101337.44
2023-02-13T18:53:31.748Z,101339.25
2023-02-13T18:56:04.589Z,101340.28
2023-02-13T18:58:36.275Z,101339.84
2023-02-13T19:01:29.719Z,101326.84
2023-02-13T19:03:58.814Z,101320.81
2023-02-13T19:06:26.638Z,101325.88
2023-02-13T19:08:57.457Z,101326.84
2023-02-13T19:11:26.564Z,101327.84
2023-02-13T19:14:00.248Z,101334.50
2023-02-13T19:16:32.261Z,101333.28
2023-02-13T19:19:06.547Z,101336.50
2023-02-13T19:21:38.574Z,101332.44
2023-02-13T19:24:12.259Z,101337.16
2023-02-13T19:26:39.753Z,101333.97
2023-02-13T19:29:07.428Z,101339.41
2023-02-13T19:31:35.979Z,101337.81
2023-02-13T19:34:03.554Z,101325.50
2023-02-13T19:36:31.962Z,101327.00
2023-02-13T19:39:06.144Z,101316.97
2023-02-13T19:41:34.570Z,101321.91
2023-02-13T19:44:02.550Z,101315.53
2023-02-13T19:46:32.682Z,101323.53
2023-02-13T19:49:01.800Z,101329.50
2023-02-13T19:51:31.975Z,101331.69
2023-02-13T19:54:07.952Z,101325.03
2023-02-13T19:56:38.379Z,101323.41
2023-02-13T19:59:10.012Z,101320.75
2023-02-13T20:02:02.213Z,101327.66
2023-02-13T20:04:34.132Z,101324.81
2023-02-13T20:07:02.092Z,101324.19
2023-02-13T20:09:30.250Z,101322.78
2023-02-13T20:12:03.539Z,101334.03
2023-02-13T20:14:31.083Z,101319.97
2023-02-13T20:16:58.953Z,101325.19
2023-02-13T20:19:27.377Z,101330.22
2023-02-13T20:21:57.496Z,101332.44
2023-02-13T20:24:25.617Z,101329.84
2023-02-13T20:26:54.027Z,101321.41
2023-02-13T20:32:41.545Z,101329.47
2023-02-13T20:35:09.511Z,101329.47
2023-02-13T20:37:38.327Z,101323.13
2023-02-13T20:40:06.801Z,101320.94
2023-02-13T20:42:36.561Z,101317.34
2023-02-13T20:45:05.754Z,101315.88
2023-02-13T20:47:34.244Z,101324.88
2023-02-13T20:50:01.892Z,101321.06
2023-02-13T20:52:30.534Z,101322.88
2023-02-13T20:54:58.561Z,101322.91
2023-02-13T20:57:26.276Z,101322.88
2023-02-13T20:59:54.175Z,101329.06
2023-02-13T21:02:22.328Z,101333.47
2023-02-13T21:04:50.327Z,101331.47
2023-02-13T21:07:18.262Z,101334.66
2023-02-13T21:09:47.247Z,101335.84
2023-02-13T21:12:14.660Z,101340.47
2023-02-13T21:14:42.445Z,101338.44
2023-02-13T21:17:11.298Z,101339.25
2023-02-13T21:19:39.794Z,101333.22
2023-02-13T21:22:08.220Z,101326.09
2023-02-13T21:24:36.090Z,101320.50
2023-02-13T21:27:06.284Z,101313.88
2023-02-13T21:29:35.246Z,101308.72
2023-02-13T21:32:03.119Z,101314.19
2023-02-13T21:34:31.147Z,101317.00
2023-02-13T21:36:58.812Z,101314.66
2023-02-13T21:39:27.476Z,101300.06
2023-02-13T21:41:59.878Z,101310.94
2023-02-13T21:44:26.876Z,101318.53
2023-02-13T21:46:54.163Z,101306.69
2023-02-13T21:49:20.973Z,101324.34
2023-02-13T21:51:48.549Z,101317.50
2023-02-13T21:54:15.999Z,101315.72
2023-02-13T21:56:43.586Z,101320.00
2023-02-13T21:59:15.345Z,101324.63
2023-02-13T22:01:47.483Z,101326.59
2023-02-13T22:04:14.722Z,101319.22
2023-02-13T22:06:41.594Z,101324.38
2023-02-13T22:09:13.889Z,101324.38
2023-02-13T22:14:33.831Z,101355.66
2023-02-13T22:17:00.655Z,101352.09
2023-02-13T22:19:27.611Z,101358.91
2023-02-13T22:21:54.839Z,101367.13
2023-02-13T22:24:21.701Z,101374.53
2023-02-13T22:26:49.835Z,101375.75
2023-02-13T22:29:17.231Z,101388.22
2023-02-13T22:31:44.916Z,101370.75
2023-02-13T22:34:13.183Z,101360.16
2023-02-13T22:36:40.449Z,101369.81
2023-02-13T22:39:09.217Z,101366.38
2023-02-13T22:41:37.225Z,101365.19
2023-02-13T22:44:04.246Z,101367.00
2023-02-13T22:46:33.852Z,101361.00
2023-02-13T22:49:01.418Z,101356.00
2023-02-13T22:51:34.828Z,101375.44
2023-02-13T22:54:02.637Z,101372.84
2023-02-13T22:56:31.002Z,101371.47
2023-02-13T22:58:58.928Z,101372.88
2023-02-13T23:01:26.973Z,101378.66
2023-02-13T23:03:55.100Z,101385.06
2023-02-13T23:06:22.266Z,101379.44
2023-02-13T23:08:49.236Z,101388.63
2023-02-13T23:11:18.921Z,101384.63
2023-02-13T23:13:47.615Z,101381.44
2023-02-13T23:16:15.643Z,101383.81
2023-02-13T23:18:43.438Z,101384.19
2023-02-13T23:21:10.371Z,101395.75
2023-02-13T23:23:38.476Z,101391.56
2023-02-13T23:26:06.956Z,101396.31
2023-02-13T23:28:35.407Z,101393.75
2023-02-13T23:31:05.155Z,101380.56
2023-02-13T23:33:32.337Z,101385.38
2023-02-13T23:35:59.117Z,101378.75
2023-02-13T23:38:26.941Z,101381.31
2023-02-13T23:40:53.890Z,101372.03
2023-02-13T23:43:20.806Z,101365.63
2023-02-13T23:45:49.320Z,101372.97
2023-02-13T23:48:17.023Z,101369.22
2023-02-13T23:50:44.928Z,101375.38
2023-02-13T23:53:11.666Z,101370.56
2023-02-13T23:55:39.941Z,101373.28
